Overview Statistics Trail Chart Weather Telemetry Raw packets
 

This is the latest recevied weather packets stored in our database for station/object W0AKY-13. If no packets are shown the sender has not sent any weather packets the latest 10 day(s).

<< 53 54 55 56 57 58 59 >>
Time Temp. Humidity Pressure Rain* Wind** Luminosity Snow
1788215745 35° C 54% 1014.8 hPa 0 mm - 161 W/m² -
1788215441 35.56° C 51% 1015 hPa 0 mm - 81 W/m² -
1788215137 35.56° C 51% 1014.9 hPa 0 mm - 133 W/m² -
1788214836 35.56° C 52% 1015 hPa 0 mm - 249 W/m² -
1788214533 36.11° C 50% 1014.9 hPa 0 mm - 259 W/m² -
1788214227 35° C 53% 1015.1 hPa 0 mm - 271 W/m² -
1788213922 35.56° C 49% 1015 hPa 0 mm - 102 W/m² -
1788213618 36.11° C 51% 1015.3 hPa 0 mm - 282 W/m² -
1788213313 35.56° C 49% 1015.2 hPa 0 mm - 303 W/m² -
1788213009 35° C 50% 1015.1 hPa 0 mm - 348 W/m² -
1788212707 35.56° C 50% 1015.3 hPa 0 mm - 176 W/m² -
1788212402 35.56° C 51% 1015.2 hPa 0 mm - 112 W/m² -
1788212099 37.22° C 49% 1015.1 hPa 0 mm - 136 W/m² -
1788211799 37.22° C 47% 1015.1 hPa 0 mm - 358 W/m² -
1788211495 36.11° C 48% 1015.2 hPa 0 mm - 359 W/m² -
1788211195 35.56° C 47% 1015.1 hPa 0 mm - 363 W/m² -
1788210890 35.56° C 48% 1015.1 hPa 0 mm - 372 W/m² -
1788210589 36.11° C 46% 1015.1 hPa 0 mm - 397 W/m² -
1788210284 36.11° C 45% 1015 hPa 0 mm - 407 W/m² -
1788209980 36.11° C 46% 1015.2 hPa 0 mm - 416 W/m² -
1788209676 36.11° C 47% 1015.1 hPa 0 mm - 421 W/m² -
1788209371 35.56° C 46% 1015.2 hPa 0 mm - 408 W/m² -
1788209070 35.56° C 49% 1015 hPa 0 mm - 438 W/m² -
1788194209 29.44° C 69% 1015.4 hPa 0 mm - 480 W/m² -
1788193905 29.44° C 69% 1015.4 hPa 0 mm - 480 W/m² -

* Rain latest hour (hover to see other rain measurements)
** Current wind speed in m/s (hover to see current wind gust speed)